地図

経路データ

SID SEASON NUMBER BASIN SUBBASIN NAME ISO_TIME NATURE LAT LON WMO_WIND WMO_PRES WMO_AGENCY TRACK_TYPE DIST2LAND LANDFALL IFLAG USA_AGENCY USA_ATCF_ID USA_LAT USA_LON USA_RECORD USA_STATUS USA_WIND USA_PRES USA_SSHS USA_R34_NE USA_R34_SE USA_R34_SW USA_R34_NW USA_R50_NE USA_R50_SE USA_R50_SW USA_R50_NW USA_R64_NE USA_R64_SE USA_R64_SW USA_R64_NW USA_POCI USA_ROCI USA_RMW USA_EYE TOKYO_LAT TOKYO_LON TOKYO_GRADE TOKYO_WIND TOKYO_PRES TOKYO_R50_DIR TOKYO_R50_LONG TOKYO_R50_SHORT TOKYO_R30_DIR TOKYO_R30_LONG TOKYO_R30_SHORT TOKYO_LAND CMA_LAT CMA_LON CMA_CAT CMA_WIND CMA_PRES HKO_LAT HKO_LON HKO_CAT HKO_WIND HKO_PRES NEWDELHI_LAT NEWDELHI_LON NEWDELHI_GRADE NEWDELHI_WIND NEWDELHI_PRES NEWDELHI_CI NEWDELHI_DP NEWDELHI_POCI REUNION_LAT REUNION_LON REUNION_TYPE REUNION_WIND REUNION_PRES REUNION_TNUM REUNION_CI REUNION_RMW REUNION_R34_NE REUNION_R34_SE REUNION_R34_SW REUNION_R34_NW REUNION_R50_NE REUNION_R50_SE REUNION_R50_SW REUNION_R50_NW REUNION_R64_NE REUNION_R64_SE REUNION_R64_SW REUNION_R64_NW BOM_LAT BOM_LON BOM_TYPE BOM_WIND BOM_PRES BOM_TNUM BOM_CI BOM_RMW BOM_R34_NE BOM_R34_SE BOM_R34_SW BOM_R34_NW BOM_R50_NE BOM_R50_SE BOM_R50_SW BOM_R50_NW BOM_R64_NE BOM_R64_SE BOM_R64_SW BOM_R64_NW BOM_ROCI BOM_POCI BOM_EYE BOM_POS_METHOD BOM_PRES_METHOD NADI_LAT NADI_LON NADI_CAT NADI_WIND NADI_PRES WELLINGTON_LAT WELLINGTON_LON WELLINGTON_WIND WELLINGTON_PRES DS824_LAT DS824_LON DS824_STAGE DS824_WIND DS824_PRES TD9636_LAT TD9636_LON TD9636_STAGE TD9636_WIND TD9636_PRES TD9635_LAT TD9635_LON TD9635_WIND TD9635_PRES TD9635_ROCI NEUMANN_LAT NEUMANN_LON NEUMANN_CLASS NEUMANN_WIND NEUMANN_PRES MLC_LAT MLC_LON MLC_CLASS MLC_WIND MLC_PRES USA_GUST BOM_GUST BOM_GUST_PER REUNION_GUST REUNION_GUST_PER USA_SEAHGT USA_SEARAD_NE USA_SEARAD_SE USA_SEARAD_SW USA_SEARAD_NW STORM_SPEED STORM_DIR
1975025S16052 1975 16 SI MM ELSA 1975-01-25 06:00:00 TS -15.5000 52.0000 reunion main 161 92 _____O______O_ -1 -15.5000 52.0000 3 9.90000 -15.5000 52.0000 TC 35 15 254
1975025S16052 1975 16 SI MM ELSA 1975-01-25 09:00:00 TS -15.7050 51.2531 main 92 21 _____P______P_ -1 -15.7050 51.2531 3 -15.7050 51.2531 TC 35 16 259
1975025S16052 1975 16 SI MM ELSA 1975-01-25 12:00:00 TS -15.8000 50.4000 reunion main 10 0 _____O______O_ -1 -15.8000 50.4000 99 9.90000 -15.8000 50.4000 TC 35 18 270
1975025S16052 1975 16 SI MM ELSA 1975-01-25 15:00:00 TS -15.7104 49.3921 main 0 0 _____P______P_ -1 -15.7104 49.3921 99 -15.7104 49.3921 TC 32 20 279
1975025S16052 1975 16 SI MM ELSA 1975-01-25 18:00:00 TS -15.5000 48.4000 reunion main 0 0 _____O______O_ -1 -15.5000 48.4000 99 9.90000 -15.5000 48.4000 TC 30 18 285
1975025S16052 1975 16 SI MM ELSA 1975-01-25 21:00:00 TS -15.2493 47.6200 main 0 0 _____P______P_ -1 -15.2493 47.6200 99 -15.2493 47.6200 TC 30 15 289
1975025S16052 1975 16 SI MM ELSA 1975-01-26 00:00:00 TS -15.0000 46.9000 reunion main 24 24 _____O______O_ -1 -15.0000 46.9000 99 9.90000 -15.0000 46.9000 TC 30 15 287
1975025S16052 1975 16 SI MM ELSA 1975-01-26 03:00:00 TS -14.8049 46.0999 main 85 85 _____P______P_ -1 -14.8049 46.0999 99 -14.8049 46.0999 TC 30 16 281
1975025S16052 1975 16 SI MM ELSA 1975-01-26 06:00:00 TS -14.7000 45.3000 reunion main 138 138 _____O______O_ -1 -14.7000 45.3000 2 9.90000 -14.7000 45.3000 TC 30 15 274
1975025S16052 1975 16 SI MM ELSA 1975-01-26 09:00:00 TS -14.6970 44.5650 main 155 155 _____P______P_ -1 -14.6970 44.5650 2 -14.6970 44.5650 TC 30 15 266
1975025S16052 1975 16 SI MM ELSA 1975-01-26 12:00:00 TS -14.8000 43.8000 reunion main 179 179 _____O______O_ -1 -14.8000 43.8000 99 9.90000 -14.8000 43.8000 TC 30 17 262
1975025S16052 1975 16 SI MM ELSA 1975-01-26 15:00:00 TS -14.9404 42.8699 main 224 130 _____P______P_ -1 -14.9404 42.8699 99 -14.9404 42.8699 TC 30 18 257
1975025S16052 1975 16 SI MM ELSA 1975-01-26 18:00:00 TS -15.2000 42.0000 reunion main 130 88 _____O______O_ -1 -15.2000 42.0000 99 9.90000 -15.2000 42.0000 TC 30 16 245
1975025S16052 1975 16 SI MM ELSA 1975-01-26 21:00:00 TS -15.6119 41.3899 main 88 69 _____P______P_ -1 -15.6119 41.3899 99 -15.6119 41.3899 TC 32 14 230
1975025S16052 1975 16 SI MM ELSA 1975-01-27 00:00:00 TS -16.1000 40.9000 reunion main 69 54 _____O______O_ -1 -16.1000 40.9000 99 9.90000 -16.1000 40.9000 TC 35 14 226
1975025S16052 1975 16 SI MM ELSA 1975-01-27 03:00:00 TS -16.5650 40.3700 main 61 46 _____P______P_ -1 -16.5650 40.3700 99 -16.5650 40.3700 TC 35 13 227
1975025S16052 1975 16 SI MM ELSA 1975-01-27 06:00:00 TS -17.0000 39.9000 reunion main 54 54 _____O______O_ -1 -17.0000 39.9000 3 9.90000 -17.0000 39.9000 TC 35 12 224
1975025S16052 1975 16 SI MM ELSA 1975-01-27 09:00:00 TS -17.3948 39.5348 main 61 61 _____P______P_ -1 -17.3948 39.5348 3 -17.3948 39.5348 TC 35 10 224
1975025S16052 1975 16 SI MM ELSA 1975-01-27 12:00:00 TS -17.7000 39.2000 reunion main 79 78 _____O______O_ -1 -17.7000 39.2000 99 9.90000 -17.7000 39.2000 TC 35 9 234
1975025S16052 1975 16 SI MM ELSA 1975-01-27 15:00:00 TS -17.8950 38.8074 main 90 84 _____P______P_ -1 -17.8950 38.8074 99 -17.8950 38.8074 TC 35 8 248
1975025S16052 1975 16 SI MM ELSA 1975-01-27 18:00:00 TS -18.0000 38.4000 reunion main 84 79 _____O______O_ -1 -18.0000 38.4000 99 9.90000 -18.0000 38.4000 TC 35 8 256
1975025S16052 1975 16 SI MM ELSA 1975-01-27 21:00:00 TS -18.0797 38.0300 main 79 59 _____P______P_ -1 -18.0797 38.0300 99 -18.0797 38.0300 TC 35 8 263
1975025S16052 1975 16 SI MM ELSA 1975-01-28 00:00:00 TS -18.1000 37.6000 reunion main 59 10 _____O______O_ -1 -18.1000 37.6000 99 9.90000 -18.1000 37.6000 TC 35 10 270
1975025S16052 1975 16 SI MM ELSA 1975-01-28 03:00:00 TS -18.0726 37.0300 main 0 0 _____P______P_ -1 -18.0726 37.0300 99 -18.0726 37.0300 TC 32 11 275
1975025S16052 1975 16 SI MM ELSA 1975-01-28 06:00:00 TS -18.0000 36.4000 reunion main 0 0 _____O______O_ -1 -18.0000 36.4000 99 9.90000 -18.0000 36.4000 TC 30 12 278
1975025S16052 1975 16 SI MM ELSA 1975-01-28 09:00:00 TS -17.9052 35.7899 main 0 0 _____P______P_ -1 -17.9052 35.7899 99 -17.9052 35.7899 TC 30 12 280
1975025S16052 1975 16 SI MM ELSA 1975-01-28 12:00:00 TS -17.8000 35.2000 reunion main 0 _____O______O_ -1 -17.8000 35.2000 6 9.90000 -17.8000 35.2000 TC 30 11 281

IBTrACS Databaseについて

本データベースは、米国NOAAが公開する1842年以降の世界の熱帯低気圧のベストトラックデータアーカイブInternational Best Track Archive for Climate Stewardship (IBTrACS)を、ウェブで閲覧しやすい形式に変換したものです。

最終更新日:2021-10-25